sensor_id;sensor_type;location;lat;lon;timestamp;pressure;altitude;pressure_sealevel;temperature;humidity
55032;BME280;40928;51.076;7.950;2023-04-06T00:02:23;97207.47;;;0.22;82.79
55032;BME280;40928;51.076;7.950;2023-04-06T00:04:49;97201.56;;;0.20;82.41
55032;BME280;40928;51.076;7.950;2023-04-06T00:07:14;97200.28;;;0.16;82.56
55032;BME280;40928;51.076;7.950;2023-04-06T00:09:40;97195.19;;;0.14;82.80
55032;BME280;40928;51.076;7.950;2023-04-06T00:12:06;97200.59;;;0.12;82.94
55032;BME280;40928;51.076;7.950;2023-04-06T00:14:31;97197.31;;;0.10;82.66
55032;BME280;40928;51.076;7.950;2023-04-06T00:16:57;97196.19;;;0.05;82.88
55032;BME280;40928;51.076;7.950;2023-04-06T00:19:22;97193.41;;;-0.02;83.48
55032;BME280;40928;51.076;7.950;2023-04-06T00:21:48;97186.03;;;-0.07;83.79
55032;BME280;40928;51.076;7.950;2023-04-06T00:24:13;97188.81;;;-0.08;83.76
55032;BME280;40928;51.076;7.950;2023-04-06T00:26:39;97189.00;;;-0.10;83.96
55032;BME280;40928;51.076;7.950;2023-04-06T00:29:04;97185.03;;;-0.06;83.75
55032;BME280;40928;51.076;7.950;2023-04-06T00:31:30;97183.25;;;-0.05;84.03
55032;BME280;40928;51.076;7.950;2023-04-06T00:33:56;97175.69;;;-0.08;84.62
55032;BME280;40928;51.076;7.950;2023-04-06T00:36:21;97185.41;;;-0.09;84.11
55032;BME280;40928;51.076;7.950;2023-04-06T00:38:47;97179.50;;;-0.11;84.19
55032;BME280;40928;51.076;7.950;2023-04-06T00:41:12;97174.38;;;-0.12;84.13
55032;BME280;40928;51.076;7.950;2023-04-06T00:43:39;97183.09;;;-0.12;84.08
55032;BME280;40928;51.076;7.950;2023-04-06T00:46:04;97164.88;;;-0.13;83.74
55032;BME280;40928;51.076;7.950;2023-04-06T00:48:31;97176.72;;;-0.18;84.03
55032;BME280;40928;51.076;7.950;2023-04-06T00:50:57;97173.94;;;-0.24;84.21
55032;BME280;40928;51.076;7.950;2023-04-06T00:53:22;97169.16;;;-0.29;84.79
55032;BME280;40928;51.076;7.950;2023-04-06T00:55:49;97166.53;;;-0.29;85.34
55032;BME280;40928;51.076;7.950;2023-04-06T00:58:15;97162.13;;;-0.28;85.21
55032;BME280;40928;51.076;7.950;2023-04-06T01:00:48;97155.38;;;-0.31;85.21
55032;BME280;40928;51.076;7.950;2023-04-06T01:03:17;97151.63;;;-0.28;85.09
55032;BME280;40928;51.076;7.950;2023-04-06T01:05:43;97154.75;;;-0.33;85.57
55032;BME280;40928;51.076;7.950;2023-04-06T01:08:22;97152.13;;;-0.33;85.85
55032;BME280;40928;51.076;7.950;2023-04-06T01:10:52;97151.31;;;-0.42;85.41
55032;BME280;40928;51.076;7.950;2023-04-06T01:13:24;97157.03;;;-0.47;85.94
55032;BME280;40928;51.076;7.950;2023-04-06T01:15:53;97149.16;;;-0.47;86.33
55032;BME280;40928;51.076;7.950;2023-04-06T01:18:45;97139.03;;;-0.50;86.44
55032;BME280;40928;51.076;7.950;2023-04-06T01:21:17;97140.34;;;-0.54;86.63
55032;BME280;40928;51.076;7.950;2023-04-06T01:24:04;97137.06;;;-0.56;86.43
55032;BME280;40928;51.076;7.950;2023-04-06T01:26:40;97135.44;;;-0.65;86.97
55032;BME280;40928;51.076;7.950;2023-04-06T01:29:08;97129.53;;;-0.67;86.94
55032;BME280;40928;51.076;7.950;2023-04-06T01:31:33;97125.28;;;-0.68;87.28
55032;BME280;40928;51.076;7.950;2023-04-06T01:33:59;97124.44;;;-0.69;87.38
55032;BME280;40928;51.076;7.950;2023-04-06T01:36:25;97123.81;;;-0.71;87.39
55032;BME280;40928;51.076;7.950;2023-04-06T01:38:59;97121.19;;;-0.71;87.42
55032;BME280;40928;51.076;7.950;2023-04-06T01:41:32;97128.38;;;-0.73;87.63
55032;BME280;40928;51.076;7.950;2023-04-06T01:43:58;97123.47;;;-0.76;87.42
55032;BME280;40928;51.076;7.950;2023-04-06T01:46:26;97114.78;;;-0.85;88.05
55032;BME280;40928;51.076;7.950;2023-04-06T01:48:52;97119.53;;;-0.80;87.90
55032;BME280;40928;51.076;7.950;2023-04-06T01:51:30;97117.41;;;-0.85;88.01
55032;BME280;40928;51.076;7.950;2023-04-06T01:53:59;97121.31;;;-0.89;88.28
55032;BME280;40928;51.076;7.950;2023-04-06T01:56:48;97125.09;;;-0.92;88.27
55032;BME280;40928;51.076;7.950;2023-04-06T01:59:28;97116.91;;;-0.97;88.60
55032;BME280;40928;51.076;7.950;2023-04-06T02:01:54;97118.38;;;-1.02;88.80
55032;BME280;40928;51.076;7.950;2023-04-06T02:04:22;97111.50;;;-1.03;88.68
55032;BME280;40928;51.076;7.950;2023-04-06T02:06:52;97110.19;;;-0.99;88.97
55032;BME280;40928;51.076;7.950;2023-04-06T02:09:21;97107.88;;;-1.02;89.26
55032;BME280;40928;51.076;7.950;2023-04-06T02:11:47;97103.81;;;-1.05;89.21
55032;BME280;40928;51.076;7.950;2023-04-06T02:14:12;97107.41;;;-1.06;89.25
55032;BME280;40928;51.076;7.950;2023-04-06T02:16:43;97107.41;;;-1.06;89.28
55032;BME280;40928;51.076;7.950;2023-04-06T02:19:08;97104.13;;;-1.08;89.22
55032;BME280;40928;51.076;7.950;2023-04-06T02:21:34;97099.84;;;-1.09;89.29
55032;BME280;40928;51.076;7.950;2023-04-06T02:23:59;97098.53;;;-1.21;90.44
55032;BME280;40928;51.076;7.950;2023-04-06T02:26:25;97094.44;;;-1.24;90.28
55032;BME280;40928;51.076;7.950;2023-04-06T02:28:51;97098.06;;;-1.25;90.33
55032;BME280;40928;51.076;7.950;2023-04-06T02:31:16;97088.38;;;-1.25;90.31
55032;BME280;40928;51.076;7.950;2023-04-06T02:33:43;97091.00;;;-1.25;89.94
55032;BME280;40928;51.076;7.950;2023-04-06T02:36:12;97104.91;;;-1.24;90.31
55032;BME280;40928;51.076;7.950;2023-04-06T02:38:37;97093.44;;;-1.31;90.91
55032;BME280;40928;51.076;7.950;2023-04-06T02:41:03;97092.00;;;-1.34;90.76
55032;BME280;40928;51.076;7.950;2023-04-06T02:43:29;97097.22;;;-1.34;90.42
55032;BME280;40928;51.076;7.950;2023-04-06T02:46:03;97092.44;;;-1.39;90.71
55032;BME280;40928;51.076;7.950;2023-04-06T02:48:32;97090.81;;;-1.40;90.61
55032;BME280;40928;51.076;7.950;2023-04-06T02:51:01;97091.94;;;-1.42;90.48
55032;BME280;40928;51.076;7.950;2023-04-06T02:53:26;97098.34;;;-1.45;90.36
55032;BME280;40928;51.076;7.950;2023-04-06T02:55:53;97093.09;;;-1.45;90.33
55032;BME280;40928;51.076;7.950;2023-04-06T02:58:18;97088.34;;;-1.41;90.59
55032;BME280;40928;51.076;7.950;2023-04-06T03:00:48;97087.56;;;-1.33;90.22
55032;BME280;40928;51.076;7.950;2023-04-06T03:03:14;97083.28;;;-1.43;90.42
55032;BME280;40928;51.076;7.950;2023-04-06T03:05:42;97085.38;;;-1.46;90.78
55032;BME280;40928;51.076;7.950;2023-04-06T03:08:08;97088.19;;;-1.48;90.83
55032;BME280;40928;51.076;7.950;2023-04-06T03:10:40;97080.97;;;-1.54;90.99
55032;BME280;40928;51.076;7.950;2023-04-06T03:13:06;97084.91;;;-1.58;90.52
55032;BME280;40928;51.076;7.950;2023-04-06T03:15:47;97089.78;;;-1.63;90.84
55032;BME280;40928;51.076;7.950;2023-04-06T03:18:20;97077.66;;;-1.64;90.74
55032;BME280;40928;51.076;7.950;2023-04-06T03:20:47;97081.94;;;-1.63;91.06
55032;BME280;40928;51.076;7.950;2023-04-06T03:23:14;97092.09;;;-1.60;91.71
55032;BME280;40928;51.076;7.950;2023-04-06T03:25:42;97084.22;;;-1.60;91.44
55032;BME280;40928;51.076;7.950;2023-04-06T03:28:11;97082.91;;;-1.64;91.27
55032;BME280;40928;51.076;7.950;2023-04-06T03:30:46;97090.94;;;-1.66;91.00
55032;BME280;40928;51.076;7.950;2023-04-06T03:33:14;97086.81;;;-1.69;90.74
55032;BME280;40928;51.076;7.950;2023-04-06T03:35:50;97086.31;;;-1.72;90.94
55032;BME280;40928;51.076;7.950;2023-04-06T03:38:16;97089.91;;;-1.73;91.14
55032;BME280;40928;51.076;7.950;2023-04-06T03:40:42;97075.66;;;-1.79;91.30
55032;BME280;40928;51.076;7.950;2023-04-06T03:43:08;97085.00;;;-1.76;91.41
55032;BME280;40928;51.076;7.950;2023-04-06T03:45:35;97084.19;;;-1.77;91.95
55032;BME280;40928;51.076;7.950;2023-04-06T03:48:02;97080.72;;;-1.77;91.76
55032;BME280;40928;51.076;7.950;2023-04-06T03:50:31;97084.50;;;-1.80;91.83
55032;BME280;40928;51.076;7.950;2023-04-06T03:52:58;97088.41;;;-1.84;90.72
55032;BME280;40928;51.076;7.950;2023-04-06T03:55:23;97082.50;;;-1.86;91.37
55032;BME280;40928;51.076;7.950;2023-04-06T03:57:49;97081.53;;;-1.85;91.75
55032;BME280;40928;51.076;7.950;2023-04-06T04:00:15;97086.13;;;-1.87;92.19
55032;BME280;40928;51.076;7.950;2023-04-06T04:02:40;97087.09;;;-1.88;92.24
55032;BME280;40928;51.076;7.950;2023-04-06T04:05:06;97088.22;;;-1.91;92.29
55032;BME280;40928;51.076;7.950;2023-04-06T04:07:32;97089.06;;;-1.90;92.11
55032;BME280;40928;51.076;7.950;2023-04-06T04:09:57;97101.31;;;-1.91;92.19
55032;BME280;40928;51.076;7.950;2023-04-06T04:12:22;97098.03;;;-1.93;92.46
55032;BME280;40928;51.076;7.950;2023-04-06T04:14:48;97099.00;;;-1.94;92.83
55032;BME280;40928;51.076;7.950;2023-04-06T04:17:14;97096.56;;;-1.95;93.12
55032;BME280;40928;51.076;7.950;2023-04-06T04:19:39;97096.19;;;-2.01;93.47
55032;BME280;40928;51.076;7.950;2023-04-06T04:22:05;97098.31;;;-2.04;93.67
55032;BME280;40928;51.076;7.950;2023-04-06T04:24:34;97096.53;;;-2.04;94.12
55032;BME280;40928;51.076;7.950;2023-04-06T04:27:01;97089.66;;;-2.05;94.72
55032;BME280;40928;51.076;7.950;2023-04-06T04:29:28;97092.41;;;-2.06;94.92
55032;BME280;40928;51.076;7.950;2023-04-06T04:31:58;97089.97;;;-2.08;94.66
55032;BME280;40928;51.076;7.950;2023-04-06T04:34:24;97097.31;;;-2.11;95.18
55032;BME280;40928;51.076;7.950;2023-04-06T04:36:51;97093.19;;;-2.14;95.41
55032;BME280;40928;51.076;7.950;2023-04-06T04:39:24;97091.72;;;-2.17;95.41
55032;BME280;40928;51.076;7.950;2023-04-06T04:41:56;97094.34;;;-2.17;95.22
55032;BME280;40928;51.076;7.950;2023-04-06T04:44:22;97092.03;;;-2.20;95.07
55032;BME280;40928;51.076;7.950;2023-04-06T04:46:49;97093.16;;;-2.22;95.35
55032;BME280;40928;51.076;7.950;2023-04-06T04:49:17;97093.47;;;-2.25;95.54
55032;BME280;40928;51.076;7.950;2023-04-06T04:51:43;97090.69;;;-2.24;95.51
55032;BME280;40928;51.076;7.950;2023-04-06T04:54:12;97087.75;;;-2.21;95.36
55032;BME280;40928;51.076;7.950;2023-04-06T04:56:39;97092.19;;;-2.21;94.91
55032;BME280;40928;51.076;7.950;2023-04-06T04:59:15;97083.69;;;-2.23;95.21
55032;BME280;40928;51.076;7.950;2023-04-06T05:01:48;97093.97;;;-2.22;95.42
55032;BME280;40928;51.076;7.950;2023-04-06T05:04:13;97093.16;;;-2.22;95.11
55032;BME280;40928;51.076;7.950;2023-04-06T05:06:39;97090.38;;;-2.21;95.12
55032;BME280;40928;51.076;7.950;2023-04-06T05:09:05;97089.72;;;-2.23;95.13
55032;BME280;40928;51.076;7.950;2023-04-06T05:11:31;97097.72;;;-2.24;95.69
55032;BME280;40928;51.076;7.950;2023-04-06T05:13:59;97093.84;;;-2.20;95.28
55032;BME280;40928;51.076;7.950;2023-04-06T05:16:25;97092.88;;;-2.19;94.92
55032;BME280;40928;51.076;7.950;2023-04-06T05:18:51;97091.41;;;-2.13;95.06
55032;BME280;40928;51.076;7.950;2023-04-06T05:21:18;97095.50;;;-2.11;95.08
55032;BME280;40928;51.076;7.950;2023-04-06T05:24:10;97100.56;;;-2.09;95.21
55032;BME280;40928;51.076;7.950;2023-04-06T05:26:37;97098.47;;;-2.06;95.52
55032;BME280;40928;51.076;7.950;2023-04-06T05:29:10;97094.53;;;-2.10;95.61
55032;BME280;40928;51.076;7.950;2023-04-06T05:31:37;97092.41;;;-2.06;95.88
55032;BME280;40928;51.076;7.950;2023-04-06T05:34:02;97091.28;;;-2.04;95.74
55032;BME280;40928;51.076;7.950;2023-04-06T05:36:34;97094.72;;;-2.03;96.24
55032;BME280;40928;51.076;7.950;2023-04-06T05:39:05;97089.97;;;-2.00;95.92
55032;BME280;40928;51.076;7.950;2023-04-06T05:41:39;97091.47;;;-1.97;96.49
55032;BME280;40928;51.076;7.950;2023-04-06T05:44:07;97085.09;;;-1.94;96.30
55032;BME280;40928;51.076;7.950;2023-04-06T05:46:32;97078.59;;;-1.90;96.12
55032;BME280;40928;51.076;7.950;2023-04-06T05:48:59;97091.69;;;-1.82;96.18
55032;BME280;40928;51.076;7.950;2023-04-06T05:51:29;97095.16;;;-1.73;96.11
55032;BME280;40928;51.076;7.950;2023-04-06T05:53:54;97088.28;;;-1.74;95.65
55032;BME280;40928;51.076;7.950;2023-04-06T05:56:21;97087.81;;;-1.61;95.59
55032;BME280;40928;51.076;7.950;2023-04-06T05:58:47;97082.09;;;-1.57;95.67
55032;BME280;40928;51.076;7.950;2023-04-06T06:01:16;97088.19;;;-1.48;95.38
55032;BME280;40928;51.076;7.950;2023-04-06T06:03:45;97086.41;;;-1.39;96.27
55032;BME280;40928;51.076;7.950;2023-04-06T06:06:10;97082.00;;;-1.30;95.90
55032;BME280;40928;51.076;7.950;2023-04-06T06:08:48;97083.63;;;-1.21;95.67
55032;BME280;40928;51.076;7.950;2023-04-06T06:11:16;97084.31;;;-1.11;95.66
55032;BME280;40928;51.076;7.950;2023-04-06T06:13:41;97083.31;;;-1.01;95.26
55032;BME280;40928;51.076;7.950;2023-04-06T06:16:08;97075.94;;;-0.89;95.24
55032;BME280;40928;51.076;7.950;2023-04-06T06:18:40;97082.66;;;-0.79;94.89
55032;BME280;40928;51.076;7.950;2023-04-06T06:21:06;97079.53;;;-0.66;95.33
55032;BME280;40928;51.076;7.950;2023-04-06T06:23:32;97085.06;;;-0.52;95.85
55032;BME280;40928;51.076;7.950;2023-04-06T06:25:58;97067.19;;;-0.40;94.84
55032;BME280;40928;51.076;7.950;2023-04-06T06:28:25;97078.28;;;-0.22;92.21
55032;BME280;40928;51.076;7.950;2023-04-06T06:30:50;97079.88;;;-0.04;91.16
55032;BME280;40928;51.076;7.950;2023-04-06T06:33:20;97079.16;;;0.42;73.12
55032;BME280;40928;51.076;7.950;2023-04-06T06:35:48;97081.31;;;0.93;64.92
55032;BME280;40928;51.076;7.950;2023-04-06T06:38:13;97075.25;;;1.31;61.92
55032;BME280;40928;51.076;7.950;2023-04-06T06:40:40;97073.81;;;1.43;61.74
55032;BME280;40928;51.076;7.950;2023-04-06T06:43:06;97077.47;;;1.87;58.77
55032;BME280;40928;51.076;7.950;2023-04-06T06:45:54;97078.81;;;1.98;59.00
55032;BME280;40928;51.076;7.950;2023-04-06T06:48:20;97082.81;;;2.24;56.91
55032;BME280;40928;51.076;7.950;2023-04-06T06:50:47;97079.47;;;2.52;55.04
55032;BME280;40928;51.076;7.950;2023-04-06T06:53:13;97085.19;;;2.55;56.17
55032;BME280;40928;51.076;7.950;2023-04-06T06:55:39;97082.75;;;2.76;53.89
55032;BME280;40928;51.076;7.950;2023-04-06T06:58:04;97080.59;;;2.79;54.48
55032;BME280;40928;51.076;7.950;2023-04-06T07:00:31;97078.81;;;2.86;54.95
55032;BME280;40928;51.076;7.950;2023-04-06T07:02:57;97081.25;;;3.10;52.97
55032;BME280;40928;51.076;7.950;2023-04-06T07:05:22;97073.78;;;3.13;53.74
55032;BME280;40928;51.076;7.950;2023-04-06T07:07:48;97079.31;;;3.18;54.00
55032;BME280;40928;51.076;7.950;2023-04-06T07:10:14;97078.63;;;3.31;52.78
55032;BME280;40928;51.076;7.950;2023-04-06T07:12:39;97082.78;;;3.47;52.21
55032;BME280;40928;51.076;7.950;2023-04-06T07:15:06;97084.97;;;3.65;51.73
55032;BME280;40928;51.076;7.950;2023-04-06T07:17:32;97074.53;;;3.57;52.89
55032;BME280;40928;51.076;7.950;2023-04-06T07:19:59;97081.91;;;3.69;52.73
55032;BME280;40928;51.076;7.950;2023-04-06T07:22:24;97084.03;;;3.80;52.89
55032;BME280;40928;51.076;7.950;2023-04-06T07:24:51;97077.59;;;3.96;51.82
55032;BME280;40928;51.076;7.950;2023-04-06T07:27:17;97075.34;;;3.93;51.54
55032;BME280;40928;51.076;7.950;2023-04-06T07:29:44;97088.22;;;4.03;51.74
55032;BME280;40928;51.076;7.950;2023-04-06T07:32:10;97088.66;;;4.13;51.20
55032;BME280;40928;51.076;7.950;2023-04-06T07:34:38;97075.88;;;4.17;51.61
55032;BME280;40928;51.076;7.950;2023-04-06T07:37:06;97091.59;;;4.32;50.99
55032;BME280;40928;51.076;7.950;2023-04-06T07:39:32;97074.28;;;4.22;51.60
55032;BME280;40928;51.076;7.950;2023-04-06T07:41:58;97073.47;;;4.29;51.40
55032;BME280;40928;51.076;7.950;2023-04-06T07:44:24;97073.53;;;4.35;51.88
55032;BME280;40928;51.076;7.950;2023-04-06T07:46:49;97064.78;;;4.41;52.64
55032;BME280;40928;51.076;7.950;2023-04-06T07:49:18;97065.03;;;4.53;51.70
55032;BME280;40928;51.076;7.950;2023-04-06T07:51:46;97074.22;;;4.57;50.80
55032;BME280;40928;51.076;7.950;2023-04-06T07:54:12;97076.88;;;4.57;52.00
55032;BME280;40928;51.076;7.950;2023-04-06T07:56:37;97061.00;;;4.64;51.60
55032;BME280;40928;51.076;7.950;2023-04-06T07:59:03;97062.84;;;4.70;51.76
55032;BME280;40928;51.076;7.950;2023-04-06T08:01:28;97068.38;;;4.89;51.60
55032;BME280;40928;51.076;7.950;2023-04-06T08:03:55;97067.56;;;4.95;51.23
55032;BME280;40928;51.076;7.950;2023-04-06T08:06:21;97069.22;;;5.03;51.60
55032;BME280;40928;51.076;7.950;2023-04-06T08:08:46;97066.16;;;5.06;51.32
55032;BME280;40928;51.076;7.950;2023-04-06T08:11:12;97074.53;;;5.23;51.73
55032;BME280;40928;51.076;7.950;2023-04-06T08:13:38;97074.13;;;5.26;50.65
55032;BME280;40928;51.076;7.950;2023-04-06T08:16:04;97067.81;;;5.34;51.10
55032;BME280;40928;51.076;7.950;2023-04-06T08:18:29;97074.50;;;5.50;52.35
55032;BME280;40928;51.076;7.950;2023-04-06T08:20:55;97080.00;;;5.69;51.55
55032;BME280;40928;51.076;7.950;2023-04-06T08:23:21;97072.00;;;5.89;50.77
55032;BME280;40928;51.076;7.950;2023-04-06T08:25:47;97070.78;;;6.05;49.87
55032;BME280;40928;51.076;7.950;2023-04-06T08:28:12;97075.06;;;6.13;49.71
55032;BME280;40928;51.076;7.950;2023-04-06T08:30:42;97069.47;;;6.28;49.41
55032;BME280;40928;51.076;7.950;2023-04-06T08:33:08;97069.88;;;6.24;49.08
55032;BME280;40928;51.076;7.950;2023-04-06T08:35:34;97078.38;;;6.47;48.60
55032;BME280;40928;51.076;7.950;2023-04-06T08:38:00;97068.69;;;6.66;48.93
55032;BME280;40928;51.076;7.950;2023-04-06T08:40:26;97074.16;;;6.71;49.30
55032;BME280;40928;51.076;7.950;2023-04-06T08:42:54;97068.16;;;6.89;49.24
55032;BME280;40928;51.076;7.950;2023-04-06T08:45:21;97071.81;;;6.95;47.96
55032;BME280;40928;51.076;7.950;2023-04-06T08:47:48;97071.88;;;7.13;47.75
55032;BME280;40928;51.076;7.950;2023-04-06T08:50:16;97064.88;;;6.94;47.49
55032;BME280;40928;51.076;7.950;2023-04-06T08:52:43;97059.16;;;7.22;48.39
55032;BME280;40928;51.076;7.950;2023-04-06T08:55:09;97062.78;;;7.53;47.19
55032;BME280;40928;51.076;7.950;2023-04-06T08:57:36;97063.53;;;7.60;47.23
55032;BME280;40928;51.076;7.950;2023-04-06T09:00:02;97070.19;;;7.70;47.48
55032;BME280;40928;51.076;7.950;2023-04-06T09:02:27;97057.31;;;7.92;47.39
55032;BME280;40928;51.076;7.950;2023-04-06T09:04:54;97064.47;;;8.10;46.03
55032;BME280;40928;51.076;7.950;2023-04-06T09:07:20;97059.50;;;8.14;45.46
55032;BME280;40928;51.076;7.950;2023-04-06T09:09:46;97057.28;;;8.29;44.87
55032;BME280;40928;51.076;7.950;2023-04-06T09:12:27;97059.19;;;8.59;45.34
55032;BME280;40928;51.076;7.950;2023-04-06T09:14:53;97068.25;;;8.70;44.88
55032;BME280;40928;51.076;7.950;2023-04-06T09:17:23;97060.59;;;8.92;44.08
55032;BME280;40928;51.076;7.950;2023-04-06T09:19:49;97062.41;;;9.34;43.34
55032;BME280;40928;51.076;7.950;2023-04-06T09:22:16;97061.41;;;9.47;42.84
55032;BME280;40928;51.076;7.950;2023-04-06T09:24:46;97051.19;;;9.68;42.83
55032;BME280;40928;51.076;7.950;2023-04-06T09:27:13;97055.38;;;9.87;42.45
55032;BME280;40928;51.076;7.950;2023-04-06T09:29:40;97052.88;;;10.21;42.46
55032;BME280;40928;51.076;7.950;2023-04-06T09:32:06;97060.22;;;10.55;41.99
55032;BME280;40928;51.076;7.950;2023-04-06T09:34:33;97057.34;;;10.57;40.16
55032;BME280;40928;51.076;7.950;2023-04-06T09:36:59;97057.66;;;10.60;39.75
55032;BME280;40928;51.076;7.950;2023-04-06T09:39:25;97039.41;;;10.69;38.86
55032;BME280;40928;51.076;7.950;2023-04-06T09:41:52;97048.75;;;10.84;38.33
55032;BME280;40928;51.076;7.950;2023-04-06T09:44:18;97050.75;;;10.76;38.97
55032;BME280;40928;51.076;7.950;2023-04-06T09:46:45;97047.16;;;11.00;38.98
55032;BME280;40928;51.076;7.950;2023-04-06T09:49:11;97052.13;;;11.25;38.21
55032;BME280;40928;51.076;7.950;2023-04-06T09:51:41;97045.84;;;11.70;37.20
55032;BME280;40928;51.076;7.950;2023-04-06T09:54:07;97050.75;;;12.13;36.26
55032;BME280;40928;51.076;7.950;2023-04-06T09:57:00;97050.59;;;12.97;34.95
55032;BME280;40928;51.076;7.950;2023-04-06T10:01:56;97044.47;;;12.46;35.16
55032;BME280;40928;51.076;7.950;2023-04-06T10:04:29;97039.53;;;12.16;35.73
55032;BME280;40928;51.076;7.950;2023-04-06T10:06:59;97045.16;;;12.37;35.85
55032;BME280;40928;51.076;7.950;2023-04-06T10:09:28;97045.69;;;13.16;33.76
55032;BME280;40928;51.076;7.950;2023-04-06T10:12:02;97043.56;;;13.18;34.10
55032;BME280;40928;51.076;7.950;2023-04-06T10:14:28;97029.22;;;13.72;33.74
55032;BME280;40928;51.076;7.950;2023-04-06T10:16:55;97041.75;;;13.99;34.15
55032;BME280;40928;51.076;7.950;2023-04-06T10:19:27;97043.63;;;14.62;33.16
55032;BME280;40928;51.076;7.950;2023-04-06T10:21:57;97038.78;;;14.59;33.14
55032;BME280;40928;51.076;7.950;2023-04-06T10:24:24;97025.22;;;13.69;34.41
55032;BME280;40928;51.076;7.950;2023-04-06T10:27:03;97043.47;;;13.07;36.10
55032;BME280;40928;51.076;7.950;2023-04-06T10:29:42;97045.94;;;12.87;36.25
55032;BME280;40928;51.076;7.950;2023-04-06T10:32:08;97039.94;;;13.02;36.49
55032;BME280;40928;51.076;7.950;2023-04-06T10:34:35;97045.38;;;13.12;36.98
55032;BME280;40928;51.076;7.950;2023-04-06T10:37:10;97042.88;;;12.73;36.45
55032;BME280;40928;51.076;7.950;2023-04-06T10:39:45;97046.50;;;13.44;36.55
55032;BME280;40928;51.076;7.950;2023-04-06T10:42:11;97036.22;;;13.08;36.31
55032;BME280;40928;51.076;7.950;2023-04-06T10:44:42;97037.91;;;13.42;36.52
55032;BME280;40928;51.076;7.950;2023-04-06T10:47:16;97061.13;;;13.03;36.22
55032;BME280;40928;51.076;7.950;2023-04-06T10:49:42;97037.03;;;12.54;36.84
55032;BME280;40928;51.076;7.950;2023-04-06T10:52:07;97039.72;;;12.76;37.75
55032;BME280;40928;51.076;7.950;2023-04-06T10:54:33;97038.97;;;12.58;37.47
55032;BME280;40928;51.076;7.950;2023-04-06T10:57:00;97034.13;;;12.55;37.75
55032;BME280;40928;51.076;7.950;2023-04-06T10:59:28;97036.47;;;12.74;37.76
55032;BME280;40928;51.076;7.950;2023-04-06T11:01:53;97037.09;;;12.59;36.80
55032;BME280;40928;51.076;7.950;2023-04-06T11:04:21;97027.72;;;12.84;37.13
55032;BME280;40928;51.076;7.950;2023-04-06T11:06:48;97033.47;;;12.70;37.28
55032;BME280;40928;51.076;7.950;2023-04-06T11:09:26;97034.72;;;12.62;37.04
55032;BME280;40928;51.076;7.950;2023-04-06T11:11:52;97029.91;;;12.64;37.47
55032;BME280;40928;51.076;7.950;2023-04-06T11:14:18;97031.47;;;12.11;37.54
55032;BME280;40928;51.076;7.950;2023-04-06T11:16:46;97030.50;;;12.44;38.24
55032;BME280;40928;51.076;7.950;2023-04-06T11:19:13;97032.03;;;12.62;37.15
55032;BME280;40928;51.076;7.950;2023-04-06T11:21:45;97040.19;;;12.23;37.81
55032;BME280;40928;51.076;7.950;2023-04-06T11:26:53;97031.22;;;11.95;39.92
55032;BME280;40928;51.076;7.950;2023-04-06T11:29:23;97030.78;;;11.98;38.29
55032;BME280;40928;51.076;7.950;2023-04-06T11:31:50;97022.94;;;11.97;39.00
55032;BME280;40928;51.076;7.950;2023-04-06T11:34:21;97030.78;;;11.98;38.71
55032;BME280;40928;51.076;7.950;2023-04-06T11:36:49;97030.03;;;11.86;37.91
55032;BME280;40928;51.076;7.950;2023-04-06T11:39:21;97029.34;;;12.13;39.08
55032;BME280;40928;51.076;7.950;2023-04-06T11:41:50;97026.66;;;12.35;39.80
55032;BME280;40928;51.076;7.950;2023-04-06T11:46:57;97016.16;;;12.56;36.94
55032;BME280;40928;51.076;7.950;2023-04-06T11:49:27;97022.44;;;12.67;37.12
55032;BME280;40928;51.076;7.950;2023-04-06T11:51:53;97015.41;;;12.11;37.24
55032;BME280;40928;51.076;7.950;2023-04-06T11:54:32;97016.69;;;12.53;37.38
55032;BME280;40928;51.076;7.950;2023-04-06T11:56:58;97007.19;;;12.67;36.88
55032;BME280;40928;51.076;7.950;2023-04-06T11:59:23;97014.28;;;12.78;36.23
55032;BME280;40928;51.076;7.950;2023-04-06T12:01:49;97019.66;;;12.56;36.47
55032;BME280;40928;51.076;7.950;2023-04-06T12:04:14;97016.44;;;12.32;37.04
55032;BME280;40928;51.076;7.950;2023-04-06T12:06:40;97015.50;;;12.43;37.53
55032;BME280;40928;51.076;7.950;2023-04-06T12:09:05;97014.91;;;12.63;37.84
55032;BME280;40928;51.076;7.950;2023-04-06T12:11:31;97006.22;;;12.51;37.08
55032;BME280;40928;51.076;7.950;2023-04-06T12:13:56;96996.84;;;12.54;38.01
55032;BME280;40928;51.076;7.950;2023-04-06T12:16:22;96997.28;;;12.68;37.51
55032;BME280;40928;51.076;7.950;2023-04-06T12:18:47;97001.97;;;12.55;37.52
55032;BME280;40928;51.076;7.950;2023-04-06T12:21:13;97007.84;;;12.52;38.37
55032;BME280;40928;51.076;7.950;2023-04-06T12:23:39;97005.84;;;12.42;39.65
55032;BME280;40928;51.076;7.950;2023-04-06T12:26:04;97001.19;;;12.32;39.15
55032;BME280;40928;51.076;7.950;2023-04-06T12:28:30;96999.03;;;12.29;39.86
55032;BME280;40928;51.076;7.950;2023-04-06T12:30:55;96995.09;;;12.37;40.47
55032;BME280;40928;51.076;7.950;2023-04-06T12:33:21;96993.28;;;12.70;39.49
55032;BME280;40928;51.076;7.950;2023-04-06T12:35:46;96999.13;;;12.94;38.89
55032;BME280;40928;51.076;7.950;2023-04-06T12:38:12;97008.97;;;13.16;38.79
55032;BME280;40928;51.076;7.950;2023-04-06T12:40:38;96990.59;;;12.98;39.28
55032;BME280;40928;51.076;7.950;2023-04-06T12:43:04;96992.59;;;13.13;39.40
55032;BME280;40928;51.076;7.950;2023-04-06T12:45:32;96996.84;;;13.41;38.72
55032;BME280;40928;51.076;7.950;2023-04-06T12:47:58;97007.06;;;13.12;38.14
55032;BME280;40928;51.076;7.950;2023-04-06T12:50:24;97000.16;;;13.21;39.08
55032;BME280;40928;51.076;7.950;2023-04-06T12:52:49;96996.78;;;13.36;38.42
55032;BME280;40928;51.076;7.950;2023-04-06T12:55:15;97000.25;;;12.99;39.46
55032;BME280;40928;51.076;7.950;2023-04-06T12:57:41;96999.75;;;12.74;39.90
55032;BME280;40928;51.076;7.950;2023-04-06T13:00:07;96988.31;;;12.57;40.65
55032;BME280;40928;51.076;7.950;2023-04-06T13:02:32;96998.53;;;12.60;40.45
55032;BME280;40928;51.076;7.950;2023-04-06T13:04:58;96997.63;;;12.27;40.76
55032;BME280;40928;51.076;7.950;2023-04-06T13:07:23;96985.69;;;12.12;42.17
55032;BME280;40928;51.076;7.950;2023-04-06T13:09:49;96989.31;;;12.23;42.27
55032;BME280;40928;51.076;7.950;2023-04-06T13:12:15;96980.59;;;12.33;42.49
55032;BME280;40928;51.076;7.950;2023-04-06T13:14:41;96980.81;;;12.31;42.11